Terminal Aerodrome Forecast
Issued by NWS

Home | Current Version | Previous Version | Text Only | Print | Product List | Glossary On
Versions: 1 2 3 4 5 6 7 8 9 10 11 12
991
FTUS43 KTOP 101723
TAFMHK
TAF
KMHK 101723Z 1018/1118 24015KT P6SM SKC
     FM102300 35009KT P6SM SKC
     FM110500 03006KT P6SM SCT030 SCT130=

USA.gov is the U.S. government's official web portal to all federal, state and local government web resources and services.